Latest Coastal Weather Observations for Yarram Airport

IDV60701

Issued at 8:31 pm EST Friday 29 May 2015 (issued every 10 minutes, with the page automatically refreshed every 10 minutes)

About coastal observations | Map of coastal stations | Coastal observations for VIC | Marine services | Other Formats
Station Details ID: 085151 Name: YARRAM AIRPORT Lat: -38.56 Lon: 146.75 Height: 17.9 m
Data from the previous 72 hours. | See also: Recent months at Yarram Airport
Date/Time
EST
Temp

°C
Wind Pressure Rain
since 9am
mm
Weather Cloud Vis
km
Sea
Height
m
Swell
Dir
 
Speed
knots
Gust
knots
hPa Trend Height
m
Period
s
Dir
29/08:30pm 6.7 N 3 4 1021.1 - 0.0 - - - - - - -
29/08:00pm 8.1 NW 5 6 1021.1 - 0.0 - - - - - - -
29/07:30pm 7.7 NNW 5 6 1021.1 - 0.0 - - - - - - -
29/07:00pm 6.8 NNE 5 6 1021.0 - 0.0 - - - - - - -
29/06:30pm 8.7 NNW 5 6 1020.8 - 0.0 - - - - - - -
29/06:00pm 9.4 NW 6 7 1020.6 - 0.0 - - - - - - -
29/05:30pm 10.9 NW 8 10 1020.6 - 0.0 - - - - - - -
29/05:00pm 11.2 NW 9 12 1020.2 - 0.0 - - - - - - -
29/04:30pm 12.2 WNW 7 10 1020.0 - 0.0 - - - - - - -
29/04:00pm 13.1 WNW 12 15 1019.8 - 0.0 - - - - - - -
29/03:30pm 13.1 W 13 19 1019.9 - 0.0 - - - - - - -
29/03:00pm 13.5 W 16 23 1019.7 - 0.0 - - - - - - -
29/02:30pm 13.5 NW 15 20 1019.1 - 0.0 - - - - - - -
29/02:00pm 14.1 WNW 15 19 1019.1 - 0.0 - - - - - - -
29/01:30pm 13.3 WNW 17 24 1019.3 - 0.0 - - - - - - -
29/01:09pm 13.7 WNW 17 28 1019.1 - 0.0 - - - - - - -
29/01:00pm 14.2 WNW 15 21 1019.3 - 0.0 - - - - - - -
29/12:30pm 13.3 WNW 17 24 1019.5 - 0.0 - - - - - - -
29/12:00pm 13.5 WNW 16 23 1020.0 - 0.0 - - - - - - -
29/11:30am 13.2 W 15 23 1020.3 - 0.0 - - - - - - -
29/11:00am 12.9 W 14 20 1020.5 - 0.0 - - - - - - -
29/10:30am 12.6 WNW 14 20 1020.6 - 0.0 - - - - - - -
29/10:00am 12.8 WNW 14 18 1020.4 - 0.0 - - - - - - -
29/09:30am 12.3 WNW 13 19 1020.0 - 0.0 - - - - - - -
29/09:00am 12.0 WNW 11 15 1019.8 - 0.2 - - - - - - -
29/08:30am 11.1 WNW 9 13 1019.5 - 0.2 - - - - - - -
29/08:00am 10.2 WNW 11 13 1019.2 - 0.2 - - - - - - -
29/07:30am 10.3 WNW 11 15 1018.8 - 0.2 - - - - - - -
29/07:00am 10.1 NW 8 13 1018.6 - 0.2 - - - - - - -
29/06:30am 10.3 WNW 7 11 1018.3 - 0.2 - - - - - - -
29/06:00am 10.6 WNW 12 19 1017.4 - 0.2 - - - - - - -
29/05:30am 10.3 WNW 14 19 1017.0 - 0.2 - - - - - - -
29/05:00am 10.3 W 12 17 1016.8 - 0.2 - - - - - - -
29/04:30am 10.9 W 16 23 1016.6 - 0.2 - - - - - - -
29/04:00am 11.2 W 17 24 1016.2 - 0.2 - - - - - - -
29/03:33am 11.3 W 16 26 1015.9 - 0.2 - - - - - - -
29/03:30am 11.3 W 17 24 1016.0 - 0.2 - - - - - - -
29/03:00am 11.5 WNW 17 22 1015.6 - 0.2 - - - - - - -
29/02:30am 11.5 WNW 14 20 1015.7 - 0.2 - - - - - - -
29/02:00am 11.6 WNW 12 18 1015.5 - 0.2 - - - - - - -
29/01:30am 12.0 WNW 14 21 1015.3 - 0.2 - - - - - - -
29/01:00am 12.4 WNW 13 22 1015.3 - 0.2 - - - - - - -
29/12:30am 12.6 WNW 11 16 1015.3 - 0.2 - - - - - - -
29/12:00am 12.2 WNW 8 10 1015.2 - 0.2 - - - - - - -
 
Date/Time
EST
Temp

°C
Wind Pressure Rain
since 9am
mm
Weather Cloud Vis
km
Sea
Height
m
Swell
Dir
 
Speed
knots
Gust
knots
hPa Trend Height
m
Period
s
Dir
28/11:30pm 12.7 W 10 13 1014.9 - 0.2 - - - - - - -
28/11:00pm 12.5 WNW 10 14 1014.8 - 0.2 - - - - - - -
28/10:30pm 12.7 W 7 11 1015.1 - 0.2 - - - - - - -
28/10:00pm 12.7 WSW 6 8 1015.0 - 0.2 - - - - - - -
28/09:30pm 13.2 WSW 15 20 1014.7 - 0.0 - - - - - - -
28/09:00pm 13.6 SW 17 23 1014.4 - 0.0 - - - - - - -
28/08:30pm 14.6 SW 15 22 1013.9 - 0.0 - - - - - - -
28/08:00pm 16.9 NNW 14 20 1012.7 - 0.0 - - - - - - -
28/07:30pm 15.7 N 14 17 1012.6 - 0.0 - - - - - - -
28/07:00pm 16.6 N 17 21 1012.6 - 0.0 - - - - - - -
28/06:30pm 16.2 N 14 17 1012.5 - 0.0 - - - - - - -
28/06:00pm 15.7 NNW 12 18 1012.7 - 0.0 - - - - - - -
28/05:30pm 17.3 NNW 11 16 1012.5 - 0.0 - - - - - - -
28/05:00pm 17.5 NNW 11 14 1012.4 - 0.0 - - - - - - -
28/04:30pm 18.4 NNW 11 16 1012.5 - 0.0 - - - - - - -
28/04:00pm 18.9 NW 13 17 1012.6 - 0.0 - - - - - - -
28/03:30pm 19.8 NW 16 22 1012.7 - 0.0 - - - - - - -
28/03:00pm 20.0 NNW 14 21 1012.4 - 0.0 - - - - - - -
28/02:40pm 20.1 NNW 15 25 1012.7 - 0.0 - - - - - - -
28/02:30pm 20.0 NNW 18 25 1012.7 - 0.0 - - - - - - -
28/02:00pm 20.1 NNW 15 24 1012.9 - 0.0 - - - - - - -
28/01:30pm 19.9 NNW 19 29 1013.4 - 0.0 - - - - - - -
28/01:06pm 20.1 NNW 17 27 1013.7 - 0.0 - - - - - - -
28/01:00pm 20.2 NNW 16 21 1013.9 - 0.0 - - - - - - -
28/12:30pm 19.8 NNW 15 20 1014.4 - 0.0 - - - - - - -
28/12:00pm 19.9 N 15 22 1014.8 - 0.0 - - - - - - -
28/11:30am 20.1 NNW 13 19 1015.4 - 0.0 - - - - - - -
28/11:00am 19.4 NNW 12 16 1016.0 - 0.0 - - - - - - -
28/10:30am 18.6 NNW 12 16 1016.3 - 0.0 - - - - - - -
28/10:00am 17.4 NW 7 11 1016.4 - 0.0 - - - - - - -
28/09:30am 16.7 N 7 12 1016.4 - 0.0 - - - - - - -
28/09:00am 15.0 N 5 6 1016.7 - 0.0 - - - - - - -
28/08:30am 11.8 NNW 1 4 1016.9 - 0.0 - - - - - - -
28/08:00am 10.5 N 5 6 1016.9 - 0.0 - - - - - - -
28/07:30am 7.1 NW 3 4 1016.8 - 0.0 - - - - - - -
28/07:00am 8.6 NNE 5 6 1016.8 - 0.0 - - - - - - -
28/06:30am 9.4 N 7 9 1016.8 - 0.0 - - - - - - -
28/06:00am 9.4 N 3 4 1016.8 - 0.0 - - - - - - -
28/05:30am 13.1 NNW 6 7 1016.6 - 0.0 - - - - - - -
28/05:00am 12.6 N 8 10 1016.4 - 0.0 - - - - - - -
28/04:30am 13.4 N 10 12 1016.3 - 0.0 - - - - - - -
28/04:00am 13.3 N 9 11 1016.4 - 0.0 - - - - - - -
28/03:30am 14.4 N 12 14 1016.6 - 0.0 - - - - - - -
28/03:00am 14.0 N 11 14 1017.1 - 0.0 - - - - - - -
28/02:30am 14.5 NNW 11 14 1017.2 - 0.0 - - - - - - -
28/02:00am 12.0 NW 5 7 1017.4 - 0.0 - - - - - - -
28/01:30am 10.8 ENE 8 10 1017.2 - 0.0 - - - - - - -
28/01:00am 11.4 ENE 6 8 1017.4 - 0.0 - - - - - - -
28/12:30am 11.8 E 5 6 1017.6 - 0.0 - - - - - - -
28/12:00am 10.9 NNE 5 6 1017.8 - 0.0 - - - - - - -
 
Date/Time
EST
Temp

°C
Wind Pressure Rain
since 9am
mm
Weather Cloud Vis
km
Sea
Height
m
Swell
Dir
 
Speed
knots
Gust
knots
hPa Trend Height
m
Period
s
Dir
27/11:30pm 10.3 NNE 5 6 1018.0 - 0.0 - - - - - - -
27/11:00pm 10.0 N 7 8 1018.1 - 0.0 - - - - - - -
27/10:30pm 12.2 NW 8 10 1018.1 - 0.0 - - - - - - -
27/10:00pm 12.8 NW 10 11 1018.3 - 0.0 - - - - - - -
27/09:30pm 12.2 NNW 8 9 1018.4 - 0.0 - - - - - - -
27/09:00pm 12.4 NNW 9 12 1018.5 - 0.0 - - - - - - -
27/08:30pm 13.1 N 11 13 1018.5 - 0.0 - - - - - - -
27/08:00pm 12.9 NNW 10 12 1018.5 - 0.0 - - - - - - -
27/07:30pm 14.0 N 10 12 1018.3 - 0.0 - - - - - - -
27/07:00pm 14.0 N 10 11 1018.2 - 0.0 - - - - - - -
27/06:30pm 12.7 N 9 10 1018.1 - 0.0 - - - - - - -
27/06:00pm 13.6 NNW 7 9 1018.0 - 0.0 - - - - - - -
27/05:30pm 13.4 NNE 3 5 1017.8 - 0.0 - - - - - - -
27/05:00pm 15.0 N 7 11 1017.6 - 0.0 - - - - - - -
27/04:30pm 17.3 NNW 7 9 1017.6 - 0.0 - - - - - - -
27/04:00pm 18.4 NNW 5 7 1017.7 - 0.0 - - - - - - -
27/03:30pm 18.2 NW 7 10 1017.6 - 0.0 - - - - - - -
27/03:00pm 17.5 NW 8 11 1017.7 - 0.0 - - - - - - -
27/02:30pm 17.6 NW 9 13 1017.6 - 0.0 - - - - - - -
27/02:00pm 18.4 NW 9 11 1017.8 - 0.0 - - - - - - -
27/01:30pm 18.3 NW 5 11 1018.1 - 0.0 - - - - - - -
27/01:00pm 17.8 NNW 4 6 1018.4 - 0.0 - - - - - - -
27/12:30pm 18.2 N 5 6 1018.7 - 0.0 - - - - - - -
27/12:00pm 17.5 E 5 6 1019.0 - 0.0 - - - - - - -
27/11:30am 15.4 ENE 5 7 1019.5 - 0.0 - - - - - - -
27/11:00am 14.8 NE 6 8 1020.0 - 0.0 - - - - - - -
27/10:30am 15.2 NE 6 8 1020.5 - 0.0 - - - - - - -
27/10:00am 13.3 NNE 6 8 1020.8 - 0.0 - - - - - - -
27/09:30am 12.5 NNE 7 9 1020.8 - 0.0 - - - - - - -
27/09:00am 10.4 NW 1 3 1020.9 - 0.0 - - - - - - -
27/08:30am 11.6 NNE 7 8 1021.0 - 0.0 - - - - - - -
27/08:00am 10.7 NE 7 8 1020.9 - 0.0 - - - - - - -
27/07:30am 9.9 NE 6 8 1020.9 - 0.0 - - - - - - -
27/07:00am 9.6 ENE 6 8 1021.1 - 0.0 - - - - - - -
27/06:30am 9.3 NE 8 10 1020.9 - 0.0 - - - - - - -
27/06:00am 8.7 NE 6 9 1020.9 - 0.0 - - - - - - -
27/05:30am 8.7 NNE 7 9 1021.1 - 0.0 - - - - - - -
27/05:00am 9.3 NNE 9 11 1021.1 - 0.0 - - - - - - -
27/04:30am 9.4 NE 7 8 1021.3 - 0.0 - - - - - - -
27/04:00am 9.8 NE 9 11 1021.4 - 0.0 - - - - - - -
27/03:30am 9.1 NNE 8 9 1021.9 - 0.0 - - - - - - -
27/03:00am 10.2 NE 8 11 1022.1 - 0.0 - - - - - - -
27/02:30am 9.9 NE 7 9 1022.5 - 0.0 - - - - - - -
27/02:00am 9.2 NE 7 8 1022.8 - 0.0 - - - - - - -
27/01:30am 9.0 NE 8 9 1022.9 - 0.0 - - - - - - -
27/01:00am 7.1 NE 4 6 1023.5 - 0.0 - - - - - - -
27/12:30am 7.4 NNW 3 4 1023.9 - 0.0 - - - - - - -
27/12:00am 8.6 ENE 6 7 1024.0 - 0.0 - - - - - - -
 
Date/Time
EST
Temp

°C
Wind Pressure Rain
since 9am
mm
Weather Cloud Vis
km
Sea
Height
m
Swell
Dir
 
Speed
knots
Gust
knots
hPa Trend Height
m
Period
s
Dir
26/11:30pm 8.6 ENE 6 7 1024.1 - 0.0 - - - - - - -
26/11:00pm 8.0 E 6 7 1024.2 - 0.0 - - - - - - -
26/10:30pm 7.0 ENE 4 5 1024.4 - 0.0 - - - - - - -
26/10:00pm 6.7 CALM 0 0 1024.8 - 0.0 - - - - - - -
26/09:30pm 7.7 NNE 1 4 1024.9 - 0.0 - - - - - - -
26/09:00pm 8.6 NE 6 7 1024.7 - 0.0 - - - - - - -

Other Formats:

Comma delimited format used in spreadsheet applications
http://www.bom.gov.au/fwo/IDV60701/IDV60701.95890.axf

JavaScript Object Notation format (JSON) in row-major order
http://www.bom.gov.au/fwo/IDV60701/IDV60701.95890.json